Time;durP1;ratioP1;P1;durP2;ratioP2;P2;SDS_P1;SDS_P2;PMS_P1;PMS_P2;Temp;Humidity;BMP_temperature;BMP_pressure;BME280_temperature;BME280_humidity;BME280_pressure;Samples;Min_cycle;Max_cycle;Signal;HPM_P1;HPM_P2
2023/06/01 00:01:04;;;;;;;69.43;25.92;;;;;;;;;;5001029;28;20040;-41
2023/06/01 00:03:31;;;;;;;67.60;26.02;;;;;;;;;;5014241;28;20060;-44
2023/06/01 00:05:58;;;;;;;70.05;24.75;;;;;;;;;;5013880;28;20032;-42
2023/06/01 00:08:25;;;;;;;65.95;24.65;;;;;;;;;;5013049;28;20454;-43
2023/06/01 00:10:53;;;;;;;69.65;24.65;;;;;;;;;;5014166;28;20030;-40
2023/06/01 00:13:20;;;;;;;72.20;24.45;;;;;;;;;;5014023;28;20403;-42
2023/06/01 00:15:47;;;;;;;75.82;25.27;;;;;;;;;;5013379;28;20454;-42
2023/06/01 00:18:15;;;;;;;58.15;22.25;;;;;;;;;;5002176;28;20065;-41
2023/06/01 00:20:42;;;;;;;79.05;24.35;;;;;;;;;;4998423;28;20446;-42
2023/06/01 00:23:10;;;;;;;75.63;23.80;;;;;;;;;;5013443;28;20670;-41
2023/06/01 00:25:37;;;;;;;66.47;23.63;;;;;;;;;;5000851;28;20030;-40
2023/06/01 00:28:04;;;;;;;75.60;24.33;;;;;;;;;;4997378;28;20548;-41
2023/06/01 00:30:31;;;;;;;68.97;23.88;;;;;;;;;;5006281;28;20045;-42
2023/06/01 00:32:58;;;;;;;66.35;23.75;;;;;;;;;;5003471;28;20502;-41
2023/06/01 00:35:25;;;;;;;71.68;24.83;;;;;;;;;;5013195;28;20396;-40
2023/06/01 00:37:52;;;;;;;68.35;24.15;;;;;;;;;;5013688;28;20037;-40
2023/06/01 00:40:20;;;;;;;75.57;23.90;;;;;;;;;;5013520;28;20161;-41
2023/06/01 00:42:47;;;;;;;80.85;26.38;;;;;;;;;;5012275;28;20511;-41
2023/06/01 00:45:14;;;;;;;63.95;26.40;;;;;;;;;;4994879;28;20022;-40
2023/06/01 00:47:42;;;;;;;92.28;29.55;;;;;;;;;;5007075;28;20084;-43
2023/06/01 00:50:10;;;;;;;112.38;34.25;;;;;;;;;;5011181;28;20038;-42
2023/06/01 00:52:38;;;;;;;117.93;37.22;;;;;;;;;;5013293;28;20377;-42
2023/06/01 00:55:06;;;;;;;119.15;37.53;;;;;;;;;;5006986;28;20025;-42
2023/06/01 00:57:34;;;;;;;130.05;41.28;;;;;;;;;;4993827;28;20392;-43
2023/06/01 01:00:08;;;;;;;127.85;41.20;;;;;;;;;;5013017;28;20483;-41
2023/06/01 01:02:37;;;;;;;127.10;40.55;;;;;;;;;;5013055;28;20049;-43
2023/06/01 01:05:09;;;;;;;123.47;38.17;;;;;;;;;;5013188;28;20025;-42
2023/06/01 01:07:42;;;;;;;129.73;39.20;;;;;;;;;;5013135;28;20113;-42
2023/06/01 01:10:12;;;;;;;133.00;40.95;;;;;;;;;;5013245;28;20030;-43
2023/06/01 01:12:57;;;;;;;171.65;43.70;;;;;;;;;;5013002;28;20041;-42
2023/06/01 01:15:24;;;;;;;149.45;42.15;;;;;;;;;;5012806;28;20073;-41
2023/06/01 01:17:53;;;;;;;148.02;41.80;;;;;;;;;;5013134;28;20113;-41
2023/06/01 01:20:24;;;;;;;156.70;43.25;;;;;;;;;;5013358;28;20496;-42
2023/06/01 01:23:09;;;;;;;138.32;42.63;;;;;;;;;;5012852;28;20045;-43
2023/06/01 01:25:36;;;;;;;129.70;40.20;;;;;;;;;;5012111;28;20037;-42
2023/06/01 01:28:03;;;;;;;140.60;40.15;;;;;;;;;;5013033;28;20108;-42
2023/06/01 01:30:31;;;;;;;130.40;40.30;;;;;;;;;;5012776;28;20040;-42
2023/06/01 01:32:59;;;;;;;124.03;37.78;;;;;;;;;;5002211;28;20080;-42
2023/06/01 01:35:27;;;;;;;134.48;40.45;;;;;;;;;;5010578;28;20034;-42
2023/06/01 01:37:55;;;;;;;126.85;39.28;;;;;;;;;;5012562;28;20599;-42
2023/06/01 01:40:22;;;;;;;111.10;37.38;;;;;;;;;;5012575;28;20040;-43
2023/06/01 01:42:50;;;;;;;107.45;35.38;;;;;;;;;;5012503;28;20038;-41
2023/06/01 01:45:18;;;;;;;101.85;30.50;;;;;;;;;;5012445;28;20041;-42
2023/06/01 01:47:50;;;;;;;80.63;28.45;;;;;;;;;;5012626;28;20116;-42
2023/06/01 01:50:19;;;;;;;91.50;29.77;;;;;;;;;;5012185;28;20730;-42
2023/06/01 01:52:48;;;;;;;80.28;27.35;;;;;;;;;;5012335;28;20435;-41
2023/06/01 01:55:18;;;;;;;75.93;25.77;;;;;;;;;;5012147;28;20041;-41
2023/06/01 01:57:45;;;;;;;78.28;27.35;;;;;;;;;;5012655;28;20045;-42
2023/06/01 02:00:13;;;;;;;84.90;28.67;;;;;;;;;;5012399;28;20053;-42
2023/06/01 02:02:41;;;;;;;76.68;28.35;;;;;;;;;;4980703;28;20060;-41
2023/06/01 02:05:08;;;;;;;79.32;27.05;;;;;;;;;;4986234;28;20084;-42
2023/06/01 02:07:35;;;;;;;77.40;28.08;;;;;;;;;;4982654;28;20109;-42
2023/06/01 02:10:02;;;;;;;88.57;28.65;;;;;;;;;;4983074;28;20035;-43
2023/06/01 02:12:29;;;;;;;84.88;27.75;;;;;;;;;;4989493;28;20027;-41
2023/06/01 02:14:56;;;;;;;86.55;28.27;;;;;;;;;;4995253;28;20052;-41
2023/06/01 02:17:26;;;;;;;74.07;25.55;;;;;;;;;;5011561;28;20030;-43
2023/06/01 02:19:53;;;;;;;75.60;26.83;;;;;;;;;;5009434;28;20088;-42
2023/06/01 02:22:21;;;;;;;71.95;25.13;;;;;;;;;;5011238;28;20029;-41
2023/06/01 02:24:48;;;;;;;68.65;25.92;;;;;;;;;;5011526;28;20018;-41
2023/06/01 02:27:15;;;;;;;68.43;25.52;;;;;;;;;;5011586;28;20116;-43
2023/06/01 02:29:42;;;;;;;75.32;26.63;;;;;;;;;;5009078;28;20079;-42
2023/06/01 02:32:09;;;;;;;72.93;25.42;;;;;;;;;;5011722;28;20492;-42
2023/06/01 02:34:36;;;;;;;73.63;25.23;;;;;;;;;;5011801;28;20033;-42
2023/06/01 02:37:04;;;;;;;76.93;25.73;;;;;;;;;;5011983;28;20430;-42
2023/06/01 02:39:31;;;;;;;66.85;23.83;;;;;;;;;;5011754;28;20033;-42
2023/06/01 02:41:58;;;;;;;70.80;25.08;;;;;;;;;;5011685;28;20554;-42
2023/06/01 02:44:25;;;;;;;68.53;23.88;;;;;;;;;;5011814;28;20037;-42
2023/06/01 02:46:52;;;;;;;66.50;22.85;;;;;;;;;;5011884;28;20030;-42
2023/06/01 02:49:19;;;;;;;68.82;24.73;;;;;;;;;;5011865;28;20065;-42
2023/06/01 02:51:46;;;;;;;60.55;21.90;;;;;;;;;;5011603;28;20030;-42
2023/06/01 02:54:14;;;;;;;59.70;22.67;;;;;;;;;;5011495;28;20034;-43
2023/06/01 02:56:41;;;;;;;64.82;22.52;;;;;;;;;;5011355;28;20029;-42
2023/06/01 02:59:08;;;;;;;58.28;22.90;;;;;;;;;;5011819;28;20519;-43
2023/06/01 03:01:35;;;;;;;65.25;22.55;;;;;;;;;;5011460;28;20029;-42
2023/06/01 03:04:07;;;;;;;54.15;21.52;;;;;;;;;;5011524;28;20068;-43
2023/06/01 03:06:37;;;;;;;52.70;20.63;;;;;;;;;;5011454;28;20030;-43
2023/06/01 03:09:05;;;;;;;53.08;20.77;;;;;;;;;;5011672;28;20053;-42
2023/06/01 03:11:32;;;;;;;48.63;20.45;;;;;;;;;;5011595;28;20092;-42
2023/06/01 03:13:59;;;;;;;54.63;20.23;;;;;;;;;;5011475;28;20025;-42
2023/06/01 03:16:26;;;;;;;55.55;19.98;;;;;;;;;;5011212;28;20054;-42
2023/06/01 03:18:55;;;;;;;47.80;19.70;;;;;;;;;;5011668;28;20045;-42
2023/06/01 03:21:22;;;;;;;50.83;19.75;;;;;;;;;;5011394;28;20110;-42
2023/06/01 03:23:49;;;;;;;52.83;20.20;;;;;;;;;;4993424;28;20400;-43
2023/06/01 03:26:18;;;;;;;51.13;20.08;;;;;;;;;;5011515;28;20034;-43
2023/06/01 03:28:45;;;;;;;53.78;19.73;;;;;;;;;;5011275;28;20033;-42
2023/06/01 03:31:12;;;;;;;48.30;19.13;;;;;;;;;;4993785;28;20065;-42
2023/06/01 03:33:40;;;;;;;45.45;18.88;;;;;;;;;;5011343;28;20026;-42
2023/06/01 03:36:07;;;;;;;47.78;17.85;;;;;;;;;;5011030;28;20044;-43
2023/06/01 03:38:35;;;;;;;50.90;18.88;;;;;;;;;;5011334;28;20030;-43
2023/06/01 03:41:02;;;;;;;44.85;18.45;;;;;;;;;;5011391;28;20387;-42
2023/06/01 03:43:29;;;;;;;47.78;18.50;;;;;;;;;;5011150;28;20041;-42
2023/06/01 03:45:57;;;;;;;49.38;18.20;;;;;;;;;;5010994;28;20076;-42
2023/06/01 03:48:24;;;;;;;45.35;17.85;;;;;;;;;;5011240;28;20041;-43
2023/06/01 03:50:51;;;;;;;37.10;16.40;;;;;;;;;;5011405;28;20026;-43
2023/06/01 03:53:19;;;;;;;45.28;18.35;;;;;;;;;;5011167;28;20026;-42
2023/06/01 03:55:48;;;;;;;41.10;16.83;;;;;;;;;;5011252;28;20120;-43
2023/06/01 03:58:15;;;;;;;42.42;16.85;;;;;;;;;;5011043;28;20034;-43
2023/06/01 04:00:43;;;;;;;43.53;17.15;;;;;;;;;;5010854;28;20038;-42
2023/06/01 04:03:11;;;;;;;38.35;16.17;;;;;;;;;;5011118;28;20041;-42
2023/06/01 04:05:38;;;;;;;44.08;16.73;;;;;;;;;;5011193;28;20148;-42
2023/06/01 04:08:05;;;;;;;41.10;17.38;;;;;;;;;;5012628;28;20384;-42
2023/06/01 04:10:32;;;;;;;38.00;16.10;;;;;;;;;;5014706;28;20032;-42
2023/06/01 04:12:59;;;;;;;37.42;15.40;;;;;;;;;;5014536;28;20041;-42
2023/06/01 04:15:26;;;;;;;35.47;15.60;;;;;;;;;;5014436;28;20099;-42
2023/06/01 04:17:53;;;;;;;35.83;15.27;;;;;;;;;;5014512;28;20030;-42
2023/06/01 04:20:20;;;;;;;32.88;15.07;;;;;;;;;;5014508;28;20144;-42
2023/06/01 04:22:47;;;;;;;34.00;14.50;;;;;;;;;;5014199;28;20041;-42
2023/06/01 04:25:20;;;;;;;36.53;14.90;;;;;;;;;;5014433;28;20084;-42
2023/06/01 04:27:48;;;;;;;32.63;14.50;;;;;;;;;;5014133;28;20109;-43
2023/06/01 04:30:16;;;;;;;36.28;15.10;;;;;;;;;;5014072;28;20029;-42
2023/06/01 04:32:44;;;;;;;33.15;13.63;;;;;;;;;;5014064;28;20030;-43
2023/06/01 04:35:11;;;;;;;35.40;14.52;;;;;;;;;;5014147;28;20037;-42
2023/06/01 04:37:40;;;;;;;30.13;14.60;;;;;;;;;;5014220;28;20484;-42
2023/06/01 04:40:09;;;;;;;31.85;14.05;;;;;;;;;;5014073;28;20076;-42
2023/06/01 04:42:38;;;;;;;33.88;14.38;;;;;;;;;;5013729;28;20041;-42
2023/06/01 04:45:09;;;;;;;29.40;13.43;;;;;;;;;;5013828;28;20088;-42
2023/06/01 04:47:39;;;;;;;28.27;12.77;;;;;;;;;;5014100;28;20550;-42
2023/06/01 04:50:11;;;;;;;33.15;13.35;;;;;;;;;;5013961;28;20109;-42
2023/06/01 04:52:38;;;;;;;28.33;13.57;;;;;;;;;;5013804;28;20076;-42
2023/06/01 04:55:06;;;;;;;29.52;12.88;;;;;;;;;;5013880;28;20539;-42
2023/06/01 04:57:33;;;;;;;31.63;13.80;;;;;;;;;;5013797;28;20534;-42
2023/06/01 05:00:00;;;;;;;25.60;12.30;;;;;;;;;;5013547;28;20470;-43
2023/06/01 05:02:28;;;;;;;26.50;12.15;;;;;;;;;;5013576;28;20037;-42
2023/06/01 05:04:55;;;;;;;26.25;12.00;;;;;;;;;;5013297;28;20109;-41
2023/06/01 05:07:24;;;;;;;25.00;12.20;;;;;;;;;;5013660;28;20105;-42
2023/06/01 05:09:51;;;;;;;28.02;12.32;;;;;;;;;;5013346;28;20061;-41
2023/06/01 05:12:18;;;;;;;27.13;11.95;;;;;;;;;;5013469;28;20030;-41
2023/06/01 05:14:45;;;;;;;24.40;12.20;;;;;;;;;;5013280;28;20046;-41
2023/06/01 05:17:12;;;;;;;27.65;11.35;;;;;;;;;;5013475;28;20034;-41
2023/06/01 05:19:39;;;;;;;26.08;11.07;;;;;;;;;;4995236;28;20388;-41
2023/06/01 05:22:06;;;;;;;24.67;11.23;;;;;;;;;;5013033;28;20520;-42
2023/06/01 05:24:33;;;;;;;25.27;11.13;;;;;;;;;;5013394;28;20081;-42
2023/06/01 05:27:00;;;;;;;26.05;11.38;;;;;;;;;;5013236;28;20030;-41
2023/06/01 05:29:27;;;;;;;22.40;10.63;;;;;;;;;;5013144;28;20026;-41
2023/06/01 05:31:55;;;;;;;25.95;11.35;;;;;;;;;;4995423;28;20551;-41
2023/06/01 05:34:22;;;;;;;23.55;10.80;;;;;;;;;;5013116;28;20025;-41
2023/06/01 05:36:49;;;;;;;25.38;11.20;;;;;;;;;;5012881;28;20034;-41
2023/06/01 05:39:16;;;;;;;21.55;9.95;;;;;;;;;;5012898;28;20121;-42
2023/06/01 05:41:43;;;;;;;22.27;10.80;;;;;;;;;;5012913;28;20040;-41
2023/06/01 05:44:11;;;;;;;22.45;10.60;;;;;;;;;;5012749;28;20044;-42
2023/06/01 05:46:38;;;;;;;22.20;10.18;;;;;;;;;;5012797;28;20126;-41
2023/06/01 05:49:05;;;;;;;22.25;9.75;;;;;;;;;;5012860;28;20022;-41
2023/06/01 05:51:36;;;;;;;21.45;9.82;;;;;;;;;;5012853;28;20036;-42
2023/06/01 05:54:04;;;;;;;22.50;10.63;;;;;;;;;;5012547;28;20042;-41
2023/06/01 05:56:31;;;;;;;19.67;9.60;;;;;;;;;;5012552;28;20248;-42
2023/06/01 05:58:59;;;;;;;20.10;9.43;;;;;;;;;;5012760;28;20028;-42
2023/06/01 06:01:27;;;;;;;17.70;8.93;;;;;;;;;;5009727;28;20112;-42
2023/06/01 06:03:55;;;;;;;17.02;8.77;;;;;;;;;;5012298;28;20046;-44
2023/06/01 06:06:22;;;;;;;19.60;8.65;;;;;;;;;;5012518;28;20025;-42
2023/06/01 06:08:50;;;;;;;19.70;9.15;;;;;;;;;;5012779;28;21144;-42
2023/06/01 06:11:17;;;;;;;16.88;8.38;;;;;;;;;;5012420;28;20438;-42
2023/06/01 06:13:44;;;;;;;19.63;8.85;;;;;;;;;;5012105;28;20502;-42
2023/06/01 06:16:11;;;;;;;20.38;9.73;;;;;;;;;;5012294;28;20073;-43
2023/06/01 06:18:38;;;;;;;20.10;9.00;;;;;;;;;;5012404;28;20030;-42
2023/06/01 06:21:06;;;;;;;19.80;8.75;;;;;;;;;;5012274;28;20065;-42
2023/06/01 06:23:33;;;;;;;14.00;8.15;;;;;;;;;;5012166;28;20034;-42
2023/06/01 06:26:00;;;;;;;17.73;9.23;;;;;;;;;;5012043;28;20774;-41
2023/06/01 06:28:27;;;;;;;18.40;8.63;;;;;;;;;;5012235;28;20026;-42
2023/06/01 06:30:54;;;;;;;19.23;8.93;;;;;;;;;;5011342;28;20026;-41
2023/06/01 06:33:21;;;;;;;15.90;8.02;;;;;;;;;;5012038;28;20088;-41
2023/06/01 06:35:48;;;;;;;18.63;8.43;;;;;;;;;;5012119;28;20036;-42
2023/06/01 06:38:16;;;;;;;17.67;8.07;;;;;;;;;;5011960;28;20026;-41
2023/06/01 06:40:43;;;;;;;15.02;8.00;;;;;;;;;;5011988;28;20026;-41
2023/06/01 06:43:10;;;;;;;17.25;7.90;;;;;;;;;;5011694;28;20041;-42
2023/06/01 06:45:37;;;;;;;16.40;8.30;;;;;;;;;;5011750;28;20038;-42
2023/06/01 06:48:04;;;;;;;15.40;7.85;;;;;;;;;;5011970;28;20037;-41
2023/06/01 06:50:31;;;;;;;15.02;7.68;;;;;;;;;;5011918;28;20030;-42
2023/06/01 06:53:00;;;;;;;14.18;7.82;;;;;;;;;;5011789;28;20038;-41
2023/06/01 06:55:27;;;;;;;15.40;7.85;;;;;;;;;;5011697;28;20034;-41
2023/06/01 06:57:55;;;;;;;19.05;8.55;;;;;;;;;;5011817;28;20496;-41
2023/06/01 07:00:22;;;;;;;16.75;8.30;;;;;;;;;;5011804;28;20038;-41
2023/06/01 07:02:49;;;;;;;13.95;7.68;;;;;;;;;;5011661;28;20029;-41
2023/06/01 07:05:16;;;;;;;16.17;7.45;;;;;;;;;;5011622;28;20029;-41
2023/06/01 07:07:43;;;;;;;13.95;7.10;;;;;;;;;;4994090;28;20045;-42
2023/06/01 07:10:10;;;;;;;17.25;7.93;;;;;;;;;;5011651;28;20084;-42
2023/06/01 07:12:37;;;;;;;12.98;7.05;;;;;;;;;;5011555;28;20026;-42
2023/06/01 07:15:05;;;;;;;15.93;7.47;;;;;;;;;;5011391;28;20042;-41
2023/06/01 07:17:32;;;;;;;14.10;7.30;;;;;;;;;;5011574;28;20120;-42
2023/06/01 07:19:59;;;;;;;15.15;7.63;;;;;;;;;;5011620;28;20049;-42
2023/06/01 07:22:26;;;;;;;12.60;6.60;;;;;;;;;;5011428;28;20033;-42
2023/06/01 07:24:53;;;;;;;14.30;7.03;;;;;;;;;;5011554;28;20428;-42
2023/06/01 07:27:20;;;;;;;13.43;6.97;;;;;;;;;;4994208;28;20033;-42
2023/06/01 07:29:49;;;;;;;12.48;6.45;;;;;;;;;;5011299;28;20038;-42
2023/06/01 07:32:16;;;;;;;14.27;7.35;;;;;;;;;;5011128;28;20034;-42
2023/06/01 07:34:43;;;;;;;14.02;7.35;;;;;;;;;;5011455;28;20022;-42
2023/06/01 07:37:10;;;;;;;12.60;6.60;;;;;;;;;;4993743;28;20184;-42
2023/06/01 07:39:40;;;;;;;13.15;6.85;;;;;;;;;;5011379;28;20022;-43
2023/06/01 07:42:07;;;;;;;14.90;7.07;;;;;;;;;;5012756;28;20034;-42
2023/06/01 07:44:34;;;;;;;13.20;6.47;;;;;;;;;;5015251;28;20029;-42
2023/06/01 07:47:01;;;;;;;16.05;7.07;;;;;;;;;;4997288;28;20388;-43
2023/06/01 07:49:28;;;;;;;12.75;6.93;;;;;;;;;;5015034;28;20100;-42
2023/06/01 07:51:56;;;;;;;14.15;6.70;;;;;;;;;;5014948;28;20033;-42
2023/06/01 07:54:23;;;;;;;12.38;6.30;;;;;;;;;;5014845;28;20038;-42
2023/06/01 07:56:50;;;;;;;11.80;6.13;;;;;;;;;;5014975;28;20021;-42
2023/06/01 07:59:17;;;;;;;11.32;5.75;;;;;;;;;;5014820;28;20049;-42
2023/06/01 08:01:45;;;;;;;13.52;5.55;;;;;;;;;;5014803;28;20543;-42
2023/06/01 08:04:12;;;;;;;11.25;5.85;;;;;;;;;;5014819;28;20057;-42
2023/06/01 08:06:41;;;;;;;8.55;5.18;;;;;;;;;;4997144;28;20045;-44
2023/06/01 08:09:09;;;;;;;13.43;6.65;;;;;;;;;;5014613;28;20054;-42
2023/06/01 08:11:37;;;;;;;10.40;5.30;;;;;;;;;;4996928;28;20133;-42
2023/06/01 08:14:07;;;;;;;10.68;5.88;;;;;;;;;;5014407;28;20101;-42
2023/06/01 08:16:35;;;;;;;9.98;5.05;;;;;;;;;;5014240;28;20058;-42
2023/06/01 08:19:03;;;;;;;11.40;5.60;;;;;;;;;;5014655;28;20025;-42
2023/06/01 08:21:30;;;;;;;10.90;5.53;;;;;;;;;;5014507;28;20081;-42
2023/06/01 08:23:57;;;;;;;11.85;5.47;;;;;;;;;;5014334;28;20030;-42
2023/06/01 08:26:25;;;;;;;9.15;5.22;;;;;;;;;;5014398;28;20034;-42
2023/06/01 08:28:52;;;;;;;11.32;5.65;;;;;;;;;;5014192;28;20030;-41
2023/06/01 08:31:23;;;;;;;9.60;5.68;;;;;;;;;;5014182;28;20037;-42
2023/06/01 08:33:51;;;;;;;8.90;5.13;;;;;;;;;;5014212;28;20025;-41
2023/06/01 08:36:18;;;;;;;9.02;4.95;;;;;;;;;;5014165;28;20384;-41
2023/06/01 08:38:46;;;;;;;10.30;5.05;;;;;;;;;;5014076;28;20033;-41
2023/06/01 08:41:42;;;;;;;8.68;4.80;;;;;;;;;;5014118;28;20526;-41
2023/06/01 08:44:09;;;;;;;8.80;4.82;;;;;;;;;;4997524;28;20042;-41
2023/06/01 08:46:36;;;;;;;10.30;5.03;;;;;;;;;;5014051;28;20049;-41
2023/06/01 08:49:03;;;;;;;10.43;4.78;;;;;;;;;;5013950;28;20038;-41
2023/06/01 08:51:33;;;;;;;8.55;4.70;;;;;;;;;;5014037;28;20153;-41
2023/06/01 08:54:01;;;;;;;8.35;4.70;;;;;;;;;;5012930;28;20030;-41
2023/06/01 08:56:28;;;;;;;8.48;4.43;;;;;;;;;;5013785;28;20029;-41
2023/06/01 08:58:56;;;;;;;10.15;4.72;;;;;;;;;;5013816;28;20022;-41
2023/06/01 09:01:23;;;;;;;9.80;4.45;;;;;;;;;;5013791;28;20030;-41
2023/06/01 09:03:52;;;;;;;8.50;4.78;;;;;;;;;;5014048;28;20038;-41
2023/06/01 09:06:20;;;;;;;7.82;4.20;;;;;;;;;;5013494;28;20103;-41
2023/06/01 09:08:47;;;;;;;7.63;4.00;;;;;;;;;;5006051;28;20031;-42
2023/06/01 09:11:14;;;;;;;9.57;4.38;;;;;;;;;;5004385;28;20033;-41
2023/06/01 09:13:42;;;;;;;8.38;4.75;;;;;;;;;;4994746;28;20113;-41
2023/06/01 09:16:09;;;;;;;6.22;3.95;;;;;;;;;;4993733;28;20061;-41
2023/06/01 09:18:36;;;;;;;8.52;4.63;;;;;;;;;;4994719;28;20060;-41
2023/06/01 09:21:16;;;;;;;7.80;4.10;;;;;;;;;;5012995;28;20059;-42
2023/06/01 09:23:43;;;;;;;9.82;4.60;;;;;;;;;;5012988;28;20041;-42
2023/06/01 09:26:11;;;;;;;7.97;4.47;;;;;;;;;;5012515;28;20029;-41
2023/06/01 09:28:56;;;;;;;10.25;4.88;;;;;;;;;;5011954;28;20104;-43
2023/06/01 09:31:35;;;;;;;6.90;4.15;;;;;;;;;;5011369;28;20037;-42
2023/06/01 09:34:02;;;;;;;8.43;4.85;;;;;;;;;;5011774;28;20045;-42
2023/06/01 09:36:29;;;;;;;8.23;4.40;;;;;;;;;;5013075;28;20029;-42
2023/06/01 09:39:06;;;;;;;9.85;4.10;;;;;;;;;;5013048;28;20032;-42
2023/06/01 09:41:51;;;;;;;14.35;5.10;;;;;;;;;;5012011;28;20037;-41
2023/06/01 09:44:25;;;;;;;9.80;4.47;;;;;;;;;;4998905;28;20076;-42
2023/06/01 09:46:57;;;;;;;8.60;4.45;;;;;;;;;;5012790;28;20022;-41
2023/06/01 09:49:25;;;;;;;9.10;5.00;;;;;;;;;;5012707;28;20018;-41
2023/06/01 09:51:53;;;;;;;12.60;4.30;;;;;;;;;;5012718;28;20268;-42
2023/06/01 09:54:23;;;;;;;11.98;4.78;;;;;;;;;;5012715;28;20037;-41
2023/06/01 09:56:50;;;;;;;9.77;4.80;;;;;;;;;;4993123;28;20698;-42
2023/06/01 09:59:18;;;;;;;9.40;4.05;;;;;;;;;;4993130;28;20515;-43
2023/06/01 10:01:47;;;;;;;14.48;5.05;;;;;;;;;;4992968;28;20030;-42
2023/06/01 10:04:15;;;;;;;7.63;3.88;;;;;;;;;;4992914;28;20088;-43
2023/06/01 10:06:43;;;;;;;10.35;4.95;;;;;;;;;;4993069;28;20786;-42
2023/06/01 10:09:18;;;;;;;12.25;4.90;;;;;;;;;;4993005;28;20029;-43
2023/06/01 10:11:45;;;;;;;11.40;4.68;;;;;;;;;;4992583;28;20026;-42
2023/06/01 10:14:12;;;;;;;11.05;4.53;;;;;;;;;;4992731;28;20109;-43
2023/06/01 10:16:40;;;;;;;10.38;4.90;;;;;;;;;;4992701;28;20065;-42
2023/06/01 10:19:08;;;;;;;8.68;4.43;;;;;;;;;;4992620;28;20030;-42
2023/06/01 10:21:36;;;;;;;10.95;4.85;;;;;;;;;;4992629;28;20030;-42
2023/06/01 10:24:05;;;;;;;8.23;4.55;;;;;;;;;;4975102;28;20042;-45
2023/06/01 10:26:35;;;;;;;9.13;4.63;;;;;;;;;;4992500;28;20113;-42
2023/06/01 10:29:03;;;;;;;10.85;4.80;;;;;;;;;;4992581;28;20019;-42
2023/06/01 10:31:36;;;;;;;11.40;4.38;;;;;;;;;;4992506;28;20385;-42
2023/06/01 10:34:03;;;;;;;8.60;4.65;;;;;;;;;;4992565;28;20034;-43
2023/06/01 10:36:52;;;;;;;7.88;4.60;;;;;;;;;;4992372;28;20058;-42
2023/06/01 10:39:28;;;;;;;10.43;5.03;;;;;;;;;;4992489;28;20022;-43
2023/06/01 10:41:56;;;;;;;10.93;5.50;;;;;;;;;;4992255;28;20488;-43
2023/06/01 10:44:44;;;;;;;11.10;5.15;;;;;;;;;;4992370;28;20153;-42
2023/06/01 10:47:14;;;;;;;7.70;4.55;;;;;;;;;;4973177;28;20061;-42
2023/06/01 10:49:50;;;;;;;9.73;4.80;;;;;;;;;;4992312;28;20457;-43
2023/06/01 10:52:32;;;;;;;7.88;4.90;;;;;;;;;;4992258;28;20030;-42
2023/06/01 10:55:20;;;;;;;12.13;5.20;;;;;;;;;;4992199;28;20548;-42
2023/06/01 10:57:47;;;;;;;12.38;5.10;;;;;;;;;;4992107;28;20042;-42
2023/06/01 11:00:18;;;;;;;9.18;4.50;;;;;;;;;;4992153;28;20523;-42
2023/06/01 11:02:48;;;;;;;10.02;5.28;;;;;;;;;;4991855;28;20468;-42
2023/06/01 11:05:33;;;;;;;8.93;5.05;;;;;;;;;;4992045;28;20038;-42
2023/06/01 11:08:00;;;;;;;10.75;5.20;;;;;;;;;;4992128;28;20030;-42
2023/06/01 11:10:46;;;;;;;10.75;4.90;;;;;;;;;;4998665;28;20380;-41
2023/06/01 11:13:24;;;;;;;9.55;5.10;;;;;;;;;;5010410;28;20017;-42
2023/06/01 11:16:03;;;;;;;10.55;5.03;;;;;;;;;;5010233;28;20049;-42
2023/06/01 11:18:49;;;;;;;9.25;4.68;;;;;;;;;;5015191;28;20041;-41
2023/06/01 11:21:26;;;;;;;10.45;5.25;;;;;;;;;;5015550;28;20065;-41
2023/06/01 11:23:56;;;;;;;10.95;5.00;;;;;;;;;;5015590;28;20034;-41
2023/06/01 11:26:25;;;;;;;7.85;4.53;;;;;;;;;;4997832;28;20447;-41
2023/06/01 11:28:53;;;;;;;10.93;5.70;;;;;;;;;;5015575;28;20091;-41
2023/06/01 11:31:20;;;;;;;11.93;5.75;;;;;;;;;;5015328;28;20479;-41
2023/06/01 11:33:57;;;;;;;10.43;5.30;;;;;;;;;;5015354;28;20803;-41
2023/06/01 11:36:24;;;;;;;11.85;5.45;;;;;;;;;;5015399;28;20030;-41
2023/06/01 11:38:52;;;;;;;9.85;5.07;;;;;;;;;;5015373;28;20025;-41
2023/06/01 11:41:23;;;;;;;9.15;5.07;;;;;;;;;;5015459;28;20097;-42
2023/06/01 11:43:57;;;;;;;9.50;4.97;;;;;;;;;;5015123;28;20038;-41
2023/06/01 11:46:24;;;;;;;9.43;5.40;;;;;;;;;;5008769;28;20113;-42
2023/06/01 11:49:01;;;;;;;11.00;5.60;;;;;;;;;;5004521;28;20476;-42
2023/06/01 11:51:32;;;;;;;11.30;5.75;;;;;;;;;;5012761;28;20029;-42
2023/06/01 11:54:01;;;;;;;10.85;4.65;;;;;;;;;;5015004;28;20554;-43
2023/06/01 11:56:29;;;;;;;11.00;5.18;;;;;;;;;;5014910;28;20054;-42
2023/06/01 11:59:13;;;;;;;10.10;5.07;;;;;;;;;;5015041;28;20499;-42
2023/06/01 12:01:44;;;;;;;8.50;4.75;;;;;;;;;;4996076;28;20041;-41
2023/06/01 12:04:14;;;;;;;11.77;5.13;;;;;;;;;;5003314;28;20034;-41
2023/06/01 12:06:43;;;;;;;11.27;5.47;;;;;;;;;;5006266;28;20038;-41
2023/06/01 12:09:10;;;;;;;11.52;5.38;;;;;;;;;;5003171;28;20411;-42
2023/06/01 12:11:37;;;;;;;11.07;5.50;;;;;;;;;;5004829;28;20034;-42
2023/06/01 12:14:06;;;;;;;9.48;5.28;;;;;;;;;;5004712;28;20076;-43
2023/06/01 12:16:51;;;;;;;14.20;5.05;;;;;;;;;;5002989;28;20054;-41
2023/06/01 12:19:18;;;;;;;11.27;6.03;;;;;;;;;;5011791;28;20028;-43
2023/06/01 12:21:55;;;;;;;10.15;5.22;;;;;;;;;;5013827;28;20468;-41
2023/06/01 12:24:35;;;;;;;13.07;5.35;;;;;;;;;;5001631;28;20042;-42
2023/06/01 12:27:03;;;;;;;10.25;4.65;;;;;;;;;;4979956;28;20030;-42
2023/06/01 12:29:41;;;;;;;15.07;5.50;;;;;;;;;;4999971;28;20038;-42
2023/06/01 12:32:08;;;;;;;13.48;5.53;;;;;;;;;;5011032;28;20034;-41
2023/06/01 12:34:39;;;;;;;9.07;5.13;;;;;;;;;;5013585;28;20480;-40
2023/06/01 12:37:16;;;;;;;8.77;4.88;;;;;;;;;;5013463;28;20168;-41
2023/06/01 12:39:44;;;;;;;11.50;4.97;;;;;;;;;;5013871;28;20075;-41
2023/06/01 12:42:11;;;;;;;11.07;5.13;;;;;;;;;;5013791;28;20496;-42
2023/06/01 12:44:41;;;;;;;10.55;5.22;;;;;;;;;;5010709;28;20399;-42
2023/06/01 12:47:08;;;;;;;10.25;5.18;;;;;;;;;;5013335;28;20034;-42
2023/06/01 12:49:37;;;;;;;10.95;5.53;;;;;;;;;;5013229;28;20034;-41
2023/06/01 12:52:04;;;;;;;10.98;5.28;;;;;;;;;;5012676;28;20037;-42
2023/06/01 12:54:31;;;;;;;12.15;5.22;;;;;;;;;;5013358;28;20030;-39
2023/06/01 12:56:58;;;;;;;14.77;5.70;;;;;;;;;;5011055;28;20030;-41
2023/06/01 12:59:26;;;;;;;8.68;5.05;;;;;;;;;;5013636;28;20030;-40
2023/06/01 13:01:53;;;;;;;11.63;5.72;;;;;;;;;;5013395;28;20038;-40
2023/06/01 13:04:21;;;;;;;12.27;5.28;;;;;;;;;;5013339;28;20380;-40
2023/06/01 13:06:48;;;;;;;12.63;5.40;;;;;;;;;;5013509;28;20068;-41
2023/06/01 13:09:17;;;;;;;11.23;5.35;;;;;;;;;;5013736;28;20034;-40
2023/06/01 13:11:45;;;;;;;10.50;5.40;;;;;;;;;;5013692;28;20119;-40
2023/06/01 13:14:12;;;;;;;14.48;5.53;;;;;;;;;;5013607;28;20037;-40
2023/06/01 13:16:39;;;;;;;13.80;6.07;;;;;;;;;;5013421;28;20555;-40
2023/06/01 13:19:06;;;;;;;14.93;5.70;;;;;;;;;;5013484;28;20029;-41
2023/06/01 13:21:33;;;;;;;9.93;5.00;;;;;;;;;;5013369;28;20033;-41
2023/06/01 13:24:01;;;;;;;10.70;5.43;;;;;;;;;;5013330;28;20069;-40
2023/06/01 13:26:28;;;;;;;14.27;5.95;;;;;;;;;;5013282;28;20037;-40
2023/06/01 13:28:55;;;;;;;10.23;4.88;;;;;;;;;;5013355;28;20029;-40
2023/06/01 13:31:22;;;;;;;9.88;5.00;;;;;;;;;;5013213;28;20033;-41
2023/06/01 13:33:50;;;;;;;12.55;4.55;;;;;;;;;;5013152;28;20041;-41
2023/06/01 13:36:17;;;;;;;10.80;5.40;;;;;;;;;;5013237;28;20044;-40
2023/06/01 13:38:44;;;;;;;9.52;4.47;;;;;;;;;;5013175;28;20399;-40
2023/06/01 13:41:11;;;;;;;7.93;4.43;;;;;;;;;;5012724;28;20077;-41
2023/06/01 13:43:39;;;;;;;9.57;4.78;;;;;;;;;;5013041;28;20423;-40
2023/06/01 13:46:07;;;;;;;8.50;4.50;;;;;;;;;;5012822;28;20044;-40
2023/06/01 13:48:34;;;;;;;11.25;4.65;;;;;;;;;;5012835;28;20037;-42
2023/06/01 13:51:01;;;;;;;10.23;4.78;;;;;;;;;;5013003;28;20033;-41
2023/06/01 13:53:29;;;;;;;9.45;4.78;;;;;;;;;;4995157;28;20041;-40
2023/06/01 13:55:56;;;;;;;12.77;5.18;;;;;;;;;;5012853;28;20416;-40
2023/06/01 13:58:23;;;;;;;11.07;4.50;;;;;;;;;;5012777;28;20410;-40
2023/06/01 14:00:51;;;;;;;8.95;4.50;;;;;;;;;;5013208;28;20064;-40
2023/06/01 14:03:18;;;;;;;11.63;4.60;;;;;;;;;;5012484;28;20034;-40
2023/06/01 14:05:45;;;;;;;6.20;4.28;;;;;;;;;;5012566;28;20771;-40
2023/06/01 14:08:12;;;;;;;9.15;4.30;;;;;;;;;;5012633;28;20080;-41
2023/06/01 14:10:40;;;;;;;9.65;4.75;;;;;;;;;;5012557;28;20045;-41
2023/06/01 14:13:07;;;;;;;7.80;4.40;;;;;;;;;;5012308;28;20080;-40
2023/06/01 14:15:34;;;;;;;9.25;4.60;;;;;;;;;;5012355;28;20050;-41
2023/06/01 14:18:01;;;;;;;7.70;4.22;;;;;;;;;;5012537;28;20073;-40
2023/06/01 14:20:29;;;;;;;7.97;4.60;;;;;;;;;;5012474;28;20022;-41
2023/06/01 14:22:56;;;;;;;9.70;4.65;;;;;;;;;;5012240;28;20037;-40
2023/06/01 14:25:23;;;;;;;8.40;4.47;;;;;;;;;;5012376;28;20025;-41
2023/06/01 14:27:50;;;;;;;8.20;4.50;;;;;;;;;;5012320;28;20030;-40
2023/06/01 14:30:17;;;;;;;7.75;4.57;;;;;;;;;;5012133;28;20073;-40
2023/06/01 14:32:45;;;;;;;7.80;4.05;;;;;;;;;;5012143;28;20038;-40
2023/06/01 14:35:15;;;;;;;9.30;4.13;;;;;;;;;;5012089;28;20165;-40